Airfield :
LOGIN :

Register | Disclaimer

   EN    FR    IT 

 










Legend :    VFR   Marginal VFR   IFR   Intensive IFR   Very Intensive IFR
Visi :
Ceiling :
>= 8 km
>= 3000ft
5 to 8 km
1000 to 3000 ft
1500m to 5 km
500 to 1000 ft
800 to 1500m
200 to 500 ft
< 800m
< 200 ft
Symbols :   Thunderstorms  Fog  Heavy snow  Heavy precipitations  Wind > 20 kt
SIGMETs :     Misc.  Thunderstorms  Icing  Turbulence  Mountain Waves  Volcanic Ashes







- Airport Elevation : 375 ft
- IATA code : MST


EHBK - Maastricht Aachen

CURRENT METAR :
  • 242055Z AUTO 31005KT 9999 NCD 06/00 Q1025 NOSIG

EXPIRED METARs :
  • 242025Z AUTO 31006KT 270V340 9999 NCD 06/00 Q1026 NOSIG
  • 241955Z AUTO 31006KT 270V340 9999 NCD 07/01 Q1025 NOSIG
  • 241925Z AUTO 31006KT 280V350 9999 NCD 07/00 Q1025 NOSIG
  • 241855Z AUTO 31006KT 280V350 9999 NCD 08/M00 Q1025 NOSIG
  • 241825Z AUTO 31005KT 280V340 9999 NCD 08/M01 Q1025 NOSIG
  • 241755Z AUTO 31006KT 270V340 9999 NCD 09/M02 Q1025 NOSIG

TAF TAF EHBK
Valid from the 24 at 18:00 until the 26 at 00:00 UTC


241700Z 2418/2524 27005KT CAVOK
BECMG 2504/2507 32012KT BKN030
TEMPO 2504/2506 6000 RA SHRA SCT020TCU BKN025
BECMG 2508/2511 32015G25KT
TEMPO 2509/2514 33020G30KT 6000 SHRA SCT025CB BKN030
PROB30
TEMPO 2514/2518 7000 -SHRA FEW025TCU BKN030
BECMG 2516/2519 33008KT
No reported NOTAMs for that airfield.



MET'MAP, your aeronautical weather chart ! - Copyright ORBIFLY December 2007 - Disclaimer

ORBIFLY MET'MAP TEAM :

Programming & Development : Alexandra Zaïnal
Concept & Development : Baudouin d'Aumeries
Co-Development & Prog : Marc-Olivier Méhu
Technical & hardware support : Manuel Goepfert

Contact : metmap@orbifly.com




SOURCES & CREDITS :

   NOAA